sensor_id;sensor_type;location;lat;lon;timestamp;pressure;altitude;pressure_sealevel;temperature;humidity
28927;BME280;16038;47.692;9.400;2022-08-19T00:01:07;96223.81;;;17.56;100.00
28927;BME280;16038;47.692;9.400;2022-08-19T00:03:33;96232.47;;;17.58;100.00
28927;BME280;16038;47.692;9.400;2022-08-19T00:05:59;96235.34;;;17.51;100.00
28927;BME280;16038;47.692;9.400;2022-08-19T00:08:24;96252.09;;;17.44;100.00
28927;BME280;16038;47.692;9.400;2022-08-19T00:10:49;96261.75;;;17.36;100.00
28927;BME280;16038;47.692;9.400;2022-08-19T00:13:15;96271.78;;;17.26;100.00
28927;BME280;16038;47.692;9.400;2022-08-19T00:15:40;96275.03;;;17.21;100.00
28927;BME280;16038;47.692;9.400;2022-08-19T00:18:10;96267.88;;;17.24;100.00
28927;BME280;16038;47.692;9.400;2022-08-19T00:20:35;96272.94;;;17.29;100.00
28927;BME280;16038;47.692;9.400;2022-08-19T00:23:03;96272.56;;;17.27;100.00
28927;BME280;16038;47.692;9.400;2022-08-19T00:25:29;96270.00;;;17.39;100.00
28927;BME280;16038;47.692;9.400;2022-08-19T00:27:54;96266.16;;;17.53;100.00
28927;BME280;16038;47.692;9.400;2022-08-19T00:30:19;96270.59;;;17.51;100.00
28927;BME280;16038;47.692;9.400;2022-08-19T00:32:45;96267.09;;;17.47;100.00
28927;BME280;16038;47.692;9.400;2022-08-19T00:35:10;96274.84;;;17.55;100.00
28927;BME280;16038;47.692;9.400;2022-08-19T00:37:36;96277.06;;;17.64;100.00
28927;BME280;16038;47.692;9.400;2022-08-19T00:40:04;96274.06;;;17.55;100.00
28927;BME280;16038;47.692;9.400;2022-08-19T00:42:30;96262.69;;;17.49;100.00
28927;BME280;16038;47.692;9.400;2022-08-19T00:44:55;96270.59;;;17.51;100.00
28927;BME280;16038;47.692;9.400;2022-08-19T00:47:21;96262.03;;;17.42;100.00
28927;BME280;16038;47.692;9.400;2022-08-19T00:49:53;96263.09;;;17.48;100.00
28927;BME280;16038;47.692;9.400;2022-08-19T00:52:32;96265.88;;;17.48;100.00
28927;BME280;16038;47.692;9.400;2022-08-19T00:55:00;96270.16;;;17.52;100.00
28927;BME280;16038;47.692;9.400;2022-08-19T00:57:34;96274.53;;;17.50;100.00
28927;BME280;16038;47.692;9.400;2022-08-19T01:00:00;96271.47;;;17.44;100.00
28927;BME280;16038;47.692;9.400;2022-08-19T01:02:29;96278.88;;;17.51;100.00
28927;BME280;16038;47.692;9.400;2022-08-19T01:04:55;96280.38;;;17.55;100.00
28927;BME280;16038;47.692;9.400;2022-08-19T01:07:21;96287.59;;;17.49;100.00
28927;BME280;16038;47.692;9.400;2022-08-19T01:09:47;96273.47;;;17.44;100.00
28927;BME280;16038;47.692;9.400;2022-08-19T01:12:12;96275.78;;;17.25;100.00
28927;BME280;16038;47.692;9.400;2022-08-19T01:14:39;96281.59;;;17.31;100.00
28927;BME280;16038;47.692;9.400;2022-08-19T01:17:08;96264.75;;;17.45;100.00
28927;BME280;16038;47.692;9.400;2022-08-19T01:19:37;96271.34;;;17.51;100.00
28927;BME280;16038;47.692;9.400;2022-08-19T01:22:50;96263.69;;;17.59;100.00
28927;BME280;16038;47.692;9.400;2022-08-19T01:24:50;96254.91;;;17.64;100.00
28927;BME280;16038;47.692;9.400;2022-08-19T01:27:17;96265.06;;;17.71;100.00
28927;BME280;16038;47.692;9.400;2022-08-19T01:29:43;96260.97;;;17.79;100.00
28927;BME280;16038;47.692;9.400;2022-08-19T01:32:12;96256.56;;;17.82;100.00
28927;BME280;16038;47.692;9.400;2022-08-19T01:34:40;96255.91;;;17.74;100.00
28927;BME280;16038;47.692;9.400;2022-08-19T01:37:09;96252.28;;;17.77;100.00
28927;BME280;16038;47.692;9.400;2022-08-19T01:39:37;96240.84;;;17.75;100.00
28927;BME280;16038;47.692;9.400;2022-08-19T01:42:03;96246.31;;;17.78;100.00
28927;BME280;16038;47.692;9.400;2022-08-19T01:44:29;96248.03;;;17.72;100.00
28927;BME280;16038;47.692;9.400;2022-08-19T01:46:55;96250.09;;;17.68;100.00
28927;BME280;16038;47.692;9.400;2022-08-19T01:49:23;96266.34;;;17.66;100.00
28927;BME280;16038;47.692;9.400;2022-08-19T01:51:50;96264.38;;;17.67;100.00
28927;BME280;16038;47.692;9.400;2022-08-19T01:54:17;96266.03;;;17.61;100.00
28927;BME280;16038;47.692;9.400;2022-08-19T01:56:43;96265.88;;;17.48;100.00
28927;BME280;16038;47.692;9.400;2022-08-19T01:59:12;96254.03;;;17.47;100.00
28927;BME280;16038;47.692;9.400;2022-08-19T02:01:39;96250.44;;;17.50;100.00
28927;BME280;16038;47.692;9.400;2022-08-19T02:04:05;96242.59;;;17.45;100.00
28927;BME280;16038;47.692;9.400;2022-08-19T02:06:31;96239.41;;;17.47;100.00
28927;BME280;16038;47.692;9.400;2022-08-19T02:08:58;96238.69;;;17.43;100.00
28927;BME280;16038;47.692;9.400;2022-08-19T02:11:26;96242.44;;;17.32;100.00
28927;BME280;16038;47.692;9.400;2022-08-19T02:13:53;96243.88;;;16.93;100.00
28927;BME280;16038;47.692;9.400;2022-08-19T02:16:19;96229.38;;;16.86;100.00
28927;BME280;16038;47.692;9.400;2022-08-19T02:18:46;96227.22;;;16.97;100.00
28927;BME280;16038;47.692;9.400;2022-08-19T02:21:14;96234.50;;;17.11;100.00
28927;BME280;16038;47.692;9.400;2022-08-19T02:23:41;96245.94;;;17.13;100.00
28927;BME280;16038;47.692;9.400;2022-08-19T02:26:07;96258.66;;;17.07;100.00
28927;BME280;16038;47.692;9.400;2022-08-19T02:28:32;96254.56;;;16.91;100.00
28927;BME280;16038;47.692;9.400;2022-08-19T02:30:59;96245.06;;;16.65;100.00
28927;BME280;16038;47.692;9.400;2022-08-19T02:33:26;96232.44;;;16.64;100.00
28927;BME280;16038;47.692;9.400;2022-08-19T02:35:51;96231.69;;;16.60;100.00
28927;BME280;16038;47.692;9.400;2022-08-19T02:38:16;96227.75;;;16.61;100.00
28927;BME280;16038;47.692;9.400;2022-08-19T02:41:00;96230.91;;;16.59;100.00
28927;BME280;16038;47.692;9.400;2022-08-19T02:43:27;96246.56;;;16.70;100.00
28927;BME280;16038;47.692;9.400;2022-08-19T02:45:53;96250.28;;;16.87;100.00
28927;BME280;16038;47.692;9.400;2022-08-19T02:48:20;96252.00;;;17.04;100.00
28927;BME280;16038;47.692;9.400;2022-08-19T02:50:47;96254.16;;;17.16;100.00
28927;BME280;16038;47.692;9.400;2022-08-19T02:53:13;96261.19;;;17.21;100.00
28927;BME280;16038;47.692;9.400;2022-08-19T02:55:44;96245.34;;;17.25;100.00
28927;BME280;16038;47.692;9.400;2022-08-19T02:58:10;96254.47;;;17.22;100.00
28927;BME280;16038;47.692;9.400;2022-08-19T03:00:35;96252.53;;;17.19;100.00
28927;BME280;16038;47.692;9.400;2022-08-19T03:03:01;96239.53;;;17.16;100.00
28927;BME280;16038;47.692;9.400;2022-08-19T03:05:26;96243.69;;;17.28;100.00
28927;BME280;16038;47.692;9.400;2022-08-19T03:07:52;96238.81;;;17.35;100.00
28927;BME280;16038;47.692;9.400;2022-08-19T03:10:18;96245.03;;;17.43;100.00
28927;BME280;16038;47.692;9.400;2022-08-19T03:12:43;96243.66;;;17.51;100.00
28927;BME280;16038;47.692;9.400;2022-08-19T03:15:10;96240.19;;;17.47;100.00
28927;BME280;16038;47.692;9.400;2022-08-19T03:17:35;96239.47;;;17.19;100.00
28927;BME280;16038;47.692;9.400;2022-08-19T03:20:01;96248.03;;;17.05;100.00
28927;BME280;16038;47.692;9.400;2022-08-19T03:22:27;96249.03;;;16.91;100.00
28927;BME280;16038;47.692;9.400;2022-08-19T03:24:52;96248.28;;;16.91;100.00
28927;BME280;16038;47.692;9.400;2022-08-19T03:27:18;96244.75;;;16.87;100.00
28927;BME280;16038;47.692;9.400;2022-08-19T03:29:44;96239.31;;;16.79;100.00
28927;BME280;16038;47.692;9.400;2022-08-19T03:32:10;96242.44;;;16.81;100.00
28927;BME280;16038;47.692;9.400;2022-08-19T03:34:38;96241.16;;;16.90;100.00
28927;BME280;16038;47.692;9.400;2022-08-19T03:37:07;96246.88;;;17.03;100.00
28927;BME280;16038;47.692;9.400;2022-08-19T03:39:33;96251.34;;;17.20;100.00
28927;BME280;16038;47.692;9.400;2022-08-19T03:42:00;96248.81;;;17.29;100.00
28927;BME280;16038;47.692;9.400;2022-08-19T03:44:29;96239.28;;;17.30;100.00
28927;BME280;16038;47.692;9.400;2022-08-19T03:46:57;96240.38;;;17.36;100.00
28927;BME280;16038;47.692;9.400;2022-08-19T03:49:25;96237.41;;;17.47;100.00
28927;BME280;16038;47.692;9.400;2022-08-19T03:51:52;96232.94;;;17.53;100.00
28927;BME280;16038;47.692;9.400;2022-08-19T03:54:20;96229.69;;;17.58;100.00
28927;BME280;16038;47.692;9.400;2022-08-19T03:56:47;96229.69;;;17.58;100.00
28927;BME280;16038;47.692;9.400;2022-08-19T03:59:20;96229.63;;;17.62;100.00
28927;BME280;16038;47.692;9.400;2022-08-19T04:01:46;96222.84;;;17.87;100.00
28927;BME280;16038;47.692;9.400;2022-08-19T04:04:11;96214.81;;;17.92;100.00
28927;BME280;16038;47.692;9.400;2022-08-19T04:06:38;96214.47;;;17.90;100.00
28927;BME280;16038;47.692;9.400;2022-08-19T04:09:06;96215.75;;;17.86;100.00
28927;BME280;16038;47.692;9.400;2022-08-19T04:11:41;96203.09;;;17.85;100.00
28927;BME280;16038;47.692;9.400;2022-08-19T04:14:14;96193.63;;;17.82;100.00
28927;BME280;16038;47.692;9.400;2022-08-19T04:16:41;96197.34;;;17.75;100.00
28927;BME280;16038;47.692;9.400;2022-08-19T04:19:09;96187.03;;;17.76;100.00
28927;BME280;16038;47.692;9.400;2022-08-19T04:21:34;96192.06;;;17.81;100.00
28927;BME280;16038;47.692;9.400;2022-08-19T04:24:00;96189.72;;;17.80;100.00
28927;BME280;16038;47.692;9.400;2022-08-19T04:26:29;96203.16;;;17.81;100.00
28927;BME280;16038;47.692;9.400;2022-08-19T04:29:06;96211.81;;;17.83;100.00
28927;BME280;16038;47.692;9.400;2022-08-19T04:31:32;96224.44;;;17.84;100.00
28927;BME280;16038;47.692;9.400;2022-08-19T04:34:02;96221.75;;;17.81;100.00
28927;BME280;16038;47.692;9.400;2022-08-19T04:36:34;96229.19;;;17.64;100.00
28927;BME280;16038;47.692;9.400;2022-08-19T04:39:07;96231.34;;;17.56;100.00
28927;BME280;16038;47.692;9.400;2022-08-19T04:41:33;96229.88;;;17.48;100.00
28927;BME280;16038;47.692;9.400;2022-08-19T04:44:18;96235.84;;;17.46;100.00
28927;BME280;16038;47.692;9.400;2022-08-19T04:46:45;96243.84;;;17.41;100.00
28927;BME280;16038;47.692;9.400;2022-08-19T04:49:12;96245.50;;;17.38;100.00
28927;BME280;16038;47.692;9.400;2022-08-19T04:51:41;96240.81;;;17.35;100.00
28927;BME280;16038;47.692;9.400;2022-08-19T04:54:07;96259.47;;;17.31;100.00
28927;BME280;16038;47.692;9.400;2022-08-19T04:56:33;96263.06;;;17.28;100.00
28927;BME280;16038;47.692;9.400;2022-08-19T04:58:59;96251.81;;;17.38;100.00
28927;BME280;16038;47.692;9.400;2022-08-19T05:01:29;96254.25;;;17.56;100.00
28927;BME280;16038;47.692;9.400;2022-08-19T05:03:56;96261.59;;;17.67;100.00
28927;BME280;16038;47.692;9.400;2022-08-19T05:06:23;96260.59;;;17.77;100.00
28927;BME280;16038;47.692;9.400;2022-08-19T05:08:49;96263.69;;;17.83;100.00
28927;BME280;16038;47.692;9.400;2022-08-19T05:11:17;96262.75;;;17.89;100.00
28927;BME280;16038;47.692;9.400;2022-08-19T05:13:44;96267.03;;;17.94;100.00
28927;BME280;16038;47.692;9.400;2022-08-19T05:16:11;96275.28;;;17.98;100.00
28927;BME280;16038;47.692;9.400;2022-08-19T05:18:38;96282.03;;;17.96;100.00
28927;BME280;16038;47.692;9.400;2022-08-19T05:21:24;96281.72;;;17.91;100.00
28927;BME280;16038;47.692;9.400;2022-08-19T05:24:08;96282.44;;;17.95;100.00
28927;BME280;16038;47.692;9.400;2022-08-19T05:26:38;96285.88;;;18.03;100.00
28927;BME280;16038;47.692;9.400;2022-08-19T05:29:05;96284.16;;;18.09;100.00
28927;BME280;16038;47.692;9.400;2022-08-19T05:31:31;96281.03;;;18.07;100.00
28927;BME280;16038;47.692;9.400;2022-08-19T05:33:57;96282.00;;;18.17;100.00
28927;BME280;16038;47.692;9.400;2022-08-19T05:36:27;96281.16;;;18.20;100.00
28927;BME280;16038;47.692;9.400;2022-08-19T05:38:53;96284.50;;;18.11;100.00
28927;BME280;16038;47.692;9.400;2022-08-19T05:41:19;96281.59;;;18.18;100.00
28927;BME280;16038;47.692;9.400;2022-08-19T05:43:45;96284.44;;;18.14;100.00
28927;BME280;16038;47.692;9.400;2022-08-19T05:46:17;96278.19;;;18.10;100.00
28927;BME280;16038;47.692;9.400;2022-08-19T05:48:44;96278.25;;;18.07;100.00
28927;BME280;16038;47.692;9.400;2022-08-19T05:51:09;96280.91;;;18.14;100.00
28927;BME280;16038;47.692;9.400;2022-08-19T05:53:35;96271.47;;;18.11;100.00
28927;BME280;16038;47.692;9.400;2022-08-19T05:56:12;96271.38;;;18.15;100.00
28927;BME280;16038;47.692;9.400;2022-08-19T05:58:39;96257.59;;;18.11;100.00
28927;BME280;16038;47.692;9.400;2022-08-19T06:01:15;96254.75;;;18.15;100.00
28927;BME280;16038;47.692;9.400;2022-08-19T06:03:41;96258.72;;;18.14;100.00
28927;BME280;16038;47.692;9.400;2022-08-19T06:06:08;96263.06;;;18.15;100.00
28927;BME280;16038;47.692;9.400;2022-08-19T06:08:35;96259.91;;;18.13;100.00
28927;BME280;16038;47.692;9.400;2022-08-19T06:13:47;96266.19;;;17.97;100.00
28927;BME280;16038;47.692;9.400;2022-08-19T06:16:17;96265.31;;;18.00;100.00
28927;BME280;16038;47.692;9.400;2022-08-19T06:18:54;96266.19;;;17.97;100.00
28927;BME280;16038;47.692;9.400;2022-08-19T06:21:24;96265.88;;;17.91;100.00
28927;BME280;16038;47.692;9.400;2022-08-19T06:23:50;96269.63;;;17.81;100.00
28927;BME280;16038;47.692;9.400;2022-08-19T06:26:17;96267.41;;;17.72;100.00
28927;BME280;16038;47.692;9.400;2022-08-19T06:28:43;96273.19;;;17.82;100.00
28927;BME280;16038;47.692;9.400;2022-08-19T06:31:16;96262.56;;;18.00;100.00
28927;BME280;16038;47.692;9.400;2022-08-19T06:33:42;96266.41;;;17.86;100.00
28927;BME280;16038;47.692;9.400;2022-08-19T06:36:16;96282.03;;;17.96;100.00
28927;BME280;16038;47.692;9.400;2022-08-19T06:38:42;96279.31;;;18.13;100.00
28927;BME280;16038;47.692;9.400;2022-08-19T06:41:07;96272.16;;;18.15;100.00
28927;BME280;16038;47.692;9.400;2022-08-19T06:43:33;96281.53;;;18.22;100.00
28927;BME280;16038;47.692;9.400;2022-08-19T06:45:59;96275.56;;;18.23;100.00
28927;BME280;16038;47.692;9.400;2022-08-19T06:48:24;96278.03;;;18.18;100.00
28927;BME280;16038;47.692;9.400;2022-08-19T06:50:50;96284.06;;;18.32;100.00
28927;BME280;16038;47.692;9.400;2022-08-19T06:53:17;96283.00;;;18.46;100.00
28927;BME280;16038;47.692;9.400;2022-08-19T06:55:45;96290.88;;;18.48;100.00
28927;BME280;16038;47.692;9.400;2022-08-19T06:58:10;96291.31;;;18.46;100.00
28927;BME280;16038;47.692;9.400;2022-08-19T07:00:36;96303.91;;;18.31;100.00
28927;BME280;16038;47.692;9.400;2022-08-19T07:03:03;96292.03;;;18.30;100.00
28927;BME280;16038;47.692;9.400;2022-08-19T07:05:28;96296.88;;;18.46;100.00
28927;BME280;16038;47.692;9.400;2022-08-19T07:07:54;96302.47;;;18.43;100.00
28927;BME280;16038;47.692;9.400;2022-08-19T07:10:19;96302.91;;;18.41;100.00
28927;BME280;16038;47.692;9.400;2022-08-19T07:12:45;96292.16;;;18.43;100.00
28927;BME280;16038;47.692;9.400;2022-08-19T07:15:14;96293.25;;;18.29;100.00
28927;BME280;16038;47.692;9.400;2022-08-19T07:17:40;96285.66;;;18.33;100.00
28927;BME280;16038;47.692;9.400;2022-08-19T07:20:09;96289.88;;;18.38;100.00
28927;BME280;16038;47.692;9.400;2022-08-19T07:22:39;96293.31;;;18.46;100.00
28927;BME280;16038;47.692;9.400;2022-08-19T07:25:06;96306.09;;;18.40;100.00
28927;BME280;16038;47.692;9.400;2022-08-19T07:27:32;96301.72;;;18.22;100.00
28927;BME280;16038;47.692;9.400;2022-08-19T07:29:59;96306.66;;;18.31;100.00
28927;BME280;16038;47.692;9.400;2022-08-19T07:32:25;96307.97;;;18.26;100.00
28927;BME280;16038;47.692;9.400;2022-08-19T07:34:51;96306.25;;;18.32;100.00
28927;BME280;16038;47.692;9.400;2022-08-19T07:37:17;96312.44;;;18.40;100.00
28927;BME280;16038;47.692;9.400;2022-08-19T07:39:43;96309.03;;;18.32;100.00
28927;BME280;16038;47.692;9.400;2022-08-19T07:42:10;96311.50;;;18.27;100.00
28927;BME280;16038;47.692;9.400;2022-08-19T07:44:36;96316.72;;;18.25;100.00
28927;BME280;16038;47.692;9.400;2022-08-19T07:47:03;96309.09;;;18.29;100.00
28927;BME280;16038;47.692;9.400;2022-08-19T07:49:29;96317.00;;;18.10;100.00
28927;BME280;16038;47.692;9.400;2022-08-19T07:52:01;96319.63;;;18.18;100.00
28927;BME280;16038;47.692;9.400;2022-08-19T07:54:29;96311.31;;;17.98;100.00
28927;BME280;16038;47.692;9.400;2022-08-19T07:56:56;96321.59;;;17.97;100.00
28927;BME280;16038;47.692;9.400;2022-08-19T07:59:22;96319.44;;;17.85;100.00
28927;BME280;16038;47.692;9.400;2022-08-19T08:01:48;96316.78;;;18.01;100.00
28927;BME280;16038;47.692;9.400;2022-08-19T08:04:15;96323.59;;;18.17;100.00
28927;BME280;16038;47.692;9.400;2022-08-19T08:07:00;96321.13;;;18.22;100.00
28927;BME280;16038;47.692;9.400;2022-08-19T08:09:45;96333.34;;;18.25;100.00
28927;BME280;16038;47.692;9.400;2022-08-19T08:12:27;96331.94;;;18.37;100.00
28927;BME280;16038;47.692;9.400;2022-08-19T08:14:56;96333.06;;;18.39;100.00
28927;BME280;16038;47.692;9.400;2022-08-19T08:17:26;96332.00;;;18.33;100.00
28927;BME280;16038;47.692;9.400;2022-08-19T08:19:51;96330.47;;;18.48;100.00
28927;BME280;16038;47.692;9.400;2022-08-19T08:22:19;96338.03;;;18.48;100.00
28927;BME280;16038;47.692;9.400;2022-08-19T08:25:10;96349.69;;;18.59;100.00
28927;BME280;16038;47.692;9.400;2022-08-19T08:27:38;96337.88;;;18.55;100.00
28927;BME280;16038;47.692;9.400;2022-08-19T08:30:08;96346.97;;;18.56;100.00
28927;BME280;16038;47.692;9.400;2022-08-19T08:32:36;96341.06;;;18.53;100.00
28927;BME280;16038;47.692;9.400;2022-08-19T08:35:06;96347.19;;;18.45;100.00
28927;BME280;16038;47.692;9.400;2022-08-19T08:37:32;96350.25;;;18.50;100.00
28927;BME280;16038;47.692;9.400;2022-08-19T08:39:58;96356.72;;;18.44;100.00
28927;BME280;16038;47.692;9.400;2022-08-19T08:42:27;96353.03;;;18.50;100.00
28927;BME280;16038;47.692;9.400;2022-08-19T08:45:00;96357.88;;;18.46;100.00
28927;BME280;16038;47.692;9.400;2022-08-19T08:47:34;96353.38;;;18.32;100.00
28927;BME280;16038;47.692;9.400;2022-08-19T08:50:07;96347.84;;;18.32;100.00
28927;BME280;16038;47.692;9.400;2022-08-19T08:52:39;96356.06;;;18.16;100.00
28927;BME280;16038;47.692;9.400;2022-08-19T08:55:19;96360.78;;;18.19;100.00
28927;BME280;16038;47.692;9.400;2022-08-19T09:00:22;96363.75;;;18.08;100.00
28927;BME280;16038;47.692;9.400;2022-08-19T09:02:49;96366.53;;;18.28;100.00
28927;BME280;16038;47.692;9.400;2022-08-19T09:05:14;96365.75;;;18.28;100.00
28927;BME280;16038;47.692;9.400;2022-08-19T09:07:49;96383.44;;;18.14;100.00
28927;BME280;16038;47.692;9.400;2022-08-19T09:10:40;96372.34;;;18.14;100.00
28927;BME280;16038;47.692;9.400;2022-08-19T09:15:52;96380.56;;;17.98;100.00
28927;BME280;16038;47.692;9.400;2022-08-19T09:18:19;96385.16;;;18.08;100.00
28927;BME280;16038;47.692;9.400;2022-08-19T09:20:45;96383.00;;;18.15;100.00
28927;BME280;16038;47.692;9.400;2022-08-19T09:23:12;96385.22;;;18.04;100.00
28927;BME280;16038;47.692;9.400;2022-08-19T09:25:38;96387.03;;;18.11;100.00
28927;BME280;16038;47.692;9.400;2022-08-19T09:28:05;96392.31;;;18.05;100.00
28927;BME280;16038;47.692;9.400;2022-08-19T09:30:34;96390.97;;;18.13;100.00
28927;BME280;16038;47.692;9.400;2022-08-19T09:33:04;96392.31;;;18.05;100.00
28927;BME280;16038;47.692;9.400;2022-08-19T09:35:31;96394.06;;;17.95;100.00
28927;BME280;16038;47.692;9.400;2022-08-19T09:37:58;96394.13;;;17.92;100.00
28927;BME280;16038;47.692;9.400;2022-08-19T09:40:26;96393.47;;;17.81;100.00
28927;BME280;16038;47.692;9.400;2022-08-19T09:42:52;96394.47;;;17.70;100.00
28927;BME280;16038;47.692;9.400;2022-08-19T09:45:20;96382.75;;;17.59;100.00
28927;BME280;16038;47.692;9.400;2022-08-19T09:47:47;96391.63;;;17.50;100.00
28927;BME280;16038;47.692;9.400;2022-08-19T09:50:13;96396.41;;;17.46;100.00
28927;BME280;16038;47.692;9.400;2022-08-19T09:52:39;96401.13;;;17.49;100.00
28927;BME280;16038;47.692;9.400;2022-08-19T09:55:09;96396.59;;;17.59;100.00
28927;BME280;16038;47.692;9.400;2022-08-19T09:57:35;96406.31;;;17.71;100.00
28927;BME280;16038;47.692;9.400;2022-08-19T10:00:02;96404.75;;;17.70;100.00
28927;BME280;16038;47.692;9.400;2022-08-19T10:02:28;96417.63;;;17.56;100.00
28927;BME280;16038;47.692;9.400;2022-08-19T10:04:54;96414.19;;;17.49;100.00
28927;BME280;16038;47.692;9.400;2022-08-19T10:07:38;96411.59;;;17.38;100.00
28927;BME280;16038;47.692;9.400;2022-08-19T10:10:05;96411.84;;;17.47;100.00
28927;BME280;16038;47.692;9.400;2022-08-19T10:12:32;96403.31;;;17.62;100.00
28927;BME280;16038;47.692;9.400;2022-08-19T10:14:59;96417.56;;;17.60;100.00
28927;BME280;16038;47.692;9.400;2022-08-19T10:17:24;96411.78;;;17.51;100.00
28927;BME280;16038;47.692;9.400;2022-08-19T10:19:51;96421.38;;;17.15;100.00
28927;BME280;16038;47.692;9.400;2022-08-19T10:22:17;96408.22;;;17.23;100.00
28927;BME280;16038;47.692;9.400;2022-08-19T10:24:43;96412.97;;;17.23;100.00
28927;BME280;16038;47.692;9.400;2022-08-19T10:27:08;96420.09;;;17.24;100.00
28927;BME280;16038;47.692;9.400;2022-08-19T10:29:35;96428.91;;;17.42;100.00
28927;BME280;16038;47.692;9.400;2022-08-19T10:32:03;96421.81;;;17.41;100.00
28927;BME280;16038;47.692;9.400;2022-08-19T10:34:30;96425.97;;;17.53;100.00
28927;BME280;16038;47.692;9.400;2022-08-19T10:36:56;96429.06;;;17.58;100.00
28927;BME280;16038;47.692;9.400;2022-08-19T10:39:21;96425.22;;;17.52;100.00
28927;BME280;16038;47.692;9.400;2022-08-19T10:41:47;96421.53;;;17.59;100.00
28927;BME280;16038;47.692;9.400;2022-08-19T10:44:12;96423.88;;;17.61;100.00
28927;BME280;16038;47.692;9.400;2022-08-19T10:46:41;96419.50;;;17.63;100.00
28927;BME280;16038;47.692;9.400;2022-08-19T10:49:08;96429.56;;;17.77;100.00
28927;BME280;16038;47.692;9.400;2022-08-19T10:51:34;96424.75;;;17.81;100.00
28927;BME280;16038;47.692;9.400;2022-08-19T10:54:18;96418.25;;;17.91;100.00
28927;BME280;16038;47.692;9.400;2022-08-19T10:56:44;96428.94;;;17.93;100.00
28927;BME280;16038;47.692;9.400;2022-08-19T10:59:23;96427.78;;;17.90;100.00
28927;BME280;16038;47.692;9.400;2022-08-19T11:01:50;96422.41;;;17.80;100.00
28927;BME280;16038;47.692;9.400;2022-08-19T11:04:17;96427.34;;;17.68;100.00
28927;BME280;16038;47.692;9.400;2022-08-19T11:06:47;96438.41;;;17.68;100.00
28927;BME280;16038;47.692;9.400;2022-08-19T11:09:19;96433.19;;;17.74;100.00
28927;BME280;16038;47.692;9.400;2022-08-19T11:11:45;96430.47;;;17.70;100.00
28927;BME280;16038;47.692;9.400;2022-08-19T11:14:15;96426.94;;;17.66;100.00
28927;BME280;16038;47.692;9.400;2022-08-19T11:16:41;96432.72;;;17.79;100.00
28927;BME280;16038;47.692;9.400;2022-08-19T11:19:09;96433.28;;;17.67;100.00
28927;BME280;16038;47.692;9.400;2022-08-19T11:21:37;96424.47;;;17.75;100.00
28927;BME280;16038;47.692;9.400;2022-08-19T11:24:06;96421.25;;;17.77;100.00
28927;BME280;16038;47.692;9.400;2022-08-19T11:26:32;96422.72;;;17.85;100.00
28927;BME280;16038;47.692;9.400;2022-08-19T11:28:58;96423.09;;;17.87;100.00
28927;BME280;16038;47.692;9.400;2022-08-19T11:31:30;96432.63;;;17.86;100.00
28927;BME280;16038;47.692;9.400;2022-08-19T11:34:03;96425.84;;;17.87;100.00
28927;BME280;16038;47.692;9.400;2022-08-19T11:36:30;96430.81;;;18.00;100.00
28927;BME280;16038;47.692;9.400;2022-08-19T11:38:57;96436.50;;;18.12;100.00
28927;BME280;16038;47.692;9.400;2022-08-19T11:41:24;96435.19;;;18.21;100.00
28927;BME280;16038;47.692;9.400;2022-08-19T11:43:50;96437.00;;;18.07;100.00
28927;BME280;16038;47.692;9.400;2022-08-19T11:46:19;96432.97;;;18.12;100.00
28927;BME280;16038;47.692;9.400;2022-08-19T11:48:45;96439.34;;;18.09;100.00
28927;BME280;16038;47.692;9.400;2022-08-19T11:51:14;96445.59;;;18.13;100.00
28927;BME280;16038;47.692;9.400;2022-08-19T11:53:41;96436.88;;;18.14;100.00
28927;BME280;16038;47.692;9.400;2022-08-19T11:56:08;96437.00;;;18.07;100.00
28927;BME280;16038;47.692;9.400;2022-08-19T11:58:34;96434.91;;;18.15;100.00
28927;BME280;16038;47.692;9.400;2022-08-19T12:01:01;96440.25;;;18.02;100.00
28927;BME280;16038;47.692;9.400;2022-08-19T12:03:26;96445.59;;;18.13;100.00
28927;BME280;16038;47.692;9.400;2022-08-19T12:05:53;96445.66;;;18.09;100.00
28927;BME280;16038;47.692;9.400;2022-08-19T12:08:18;96444.13;;;18.08;100.00
28927;BME280;16038;47.692;9.400;2022-08-19T12:10:44;96443.50;;;18.21;100.00
28927;BME280;16038;47.692;9.400;2022-08-19T12:13:14;96442.22;;;18.25;100.00
28927;BME280;16038;47.692;9.400;2022-08-19T12:15:46;96437.28;;;18.13;100.00
28927;BME280;16038;47.692;9.400;2022-08-19T12:18:11;96440.59;;;18.28;100.00
28927;BME280;16038;47.692;9.400;2022-08-19T12:20:41;96443.56;;;18.17;100.00
28927;BME280;16038;47.692;9.400;2022-08-19T12:23:08;96447.53;;;18.16;100.00
28927;BME280;16038;47.692;9.400;2022-08-19T12:25:35;96449.41;;;17.99;100.00
28927;BME280;16038;47.692;9.400;2022-08-19T12:28:01;96449.88;;;18.18;100.00
28927;BME280;16038;47.692;9.400;2022-08-19T12:30:27;96455.59;;;18.30;100.00
28927;BME280;16038;47.692;9.400;2022-08-19T12:32:52;96446.28;;;18.21;100.00
28927;BME280;16038;47.692;9.400;2022-08-19T12:35:18;96448.25;;;17.96;100.00
28927;BME280;16038;47.692;9.400;2022-08-19T12:37:46;96450.72;;;18.14;100.00
28927;BME280;16038;47.692;9.400;2022-08-19T12:40:13;96451.91;;;18.37;100.00
28927;BME280;16038;47.692;9.400;2022-08-19T12:42:39;96452.13;;;18.26;100.00
28927;BME280;16038;47.692;9.400;2022-08-19T12:45:12;96458.38;;;18.30;100.00
28927;BME280;16038;47.692;9.400;2022-08-19T12:47:38;96462.03;;;18.24;100.00
28927;BME280;16038;47.692;9.400;2022-08-19T12:50:05;96457.44;;;18.17;100.00
28927;BME280;16038;47.692;9.400;2022-08-19T12:52:35;96464.94;;;18.17;100.00
28927;BME280;16038;47.692;9.400;2022-08-19T12:55:04;96462.69;;;18.11;100.00
28927;BME280;16038;47.692;9.400;2022-08-19T12:57:31;96463.34;;;17.95;100.00
28927;BME280;16038;47.692;9.400;2022-08-19T13:00:07;96473.38;;;18.09;100.00
28927;BME280;16038;47.692;9.400;2022-08-19T13:02:38;96472.78;;;18.22;100.00